Terminal Aerodrome Forecast
Issued by NWS Pueblo, CO

Home | Current Version | Previous Version | Text Only | Print | Product List | Glossary On
Versions: 1 2 3 4 5 6 7 8 9 10 11 12 13 14 15 16 17 18 19 20 21 22 23 24 25 26 27 28 29 30 31 32 33 34 35 36 37 38 39 40 41 42 43 44 45 46 47 48 49 50
000
FTUS45 KPUB 251953 AAA
TAFCOS
TAF AMD
KCOS 251953Z 2520/2618 14010G17KT P6SM BKN050
     FM252100 14010G17KT P6SM VCTS BKN050CB
      TEMPO 2522/2601 VRB15G25KT
     FM260300 13008KT P6SM SCT020 BKN040
     FM261000 13006KT 5SM BR BKN020
     FM261400 14005KT P6SM BKN040=

USA.gov is the U.S. government's official web portal to all federal, state and local government web resources and services.